createdAt,value
2023-01-11T00:01:10.989Z,0.70
2023-01-11T00:03:37.840Z,0.73
2023-01-11T00:06:05.025Z,0.65
2023-01-11T00:08:34.138Z,0.80
2023-01-11T00:11:02.446Z,1.08
2023-01-11T00:13:30.409Z,0.90
2023-01-11T00:15:57.571Z,0.80
2023-01-11T00:18:24.491Z,0.55
2023-01-11T00:20:51.364Z,0.68
2023-01-11T00:23:18.242Z,0.93
2023-01-11T00:25:45.158Z,1.63
2023-01-11T00:28:11.939Z,1.67
2023-01-11T00:30:39.065Z,1.25
2023-01-11T00:33:11.375Z,1.23
2023-01-11T00:35:38.335Z,1.38
2023-01-11T00:38:05.167Z,2.08
2023-01-11T00:40:32.172Z,2.10
2023-01-11T00:43:23.355Z,2.00
2023-01-11T00:46:08.845Z,2.28
2023-01-11T00:48:35.723Z,2.53
2023-01-11T00:51:02.652Z,2.40
2023-01-11T00:53:29.526Z,3.00
2023-01-11T00:55:56.304Z,3.25
2023-01-11T00:58:29.137Z,3.00
2023-01-11T01:00:56.145Z,3.72
2023-01-11T01:03:26.328Z,3.75
2023-01-11T01:05:57.249Z,3.70
2023-01-11T01:08:24.133Z,4.60
2023-01-11T01:10:54.275Z,2.65
2023-01-11T01:13:56.411Z,4.07
2023-01-11T01:16:23.433Z,3.55
2023-01-11T01:18:52.375Z,4.05
2023-01-11T01:21:21.864Z,4.00
2023-01-11T01:23:48.959Z,3.35
2023-01-11T01:26:18.578Z,3.30
2023-01-11T01:28:54.699Z,2.83
2023-01-11T01:31:21.767Z,2.83
2023-01-11T01:33:48.903Z,3.35
2023-01-11T01:36:15.952Z,2.83
2023-01-11T01:38:43.152Z,3.95
2023-01-11T01:41:12.528Z,3.58
2023-01-11T01:43:52.179Z,3.97
2023-01-11T01:46:20.821Z,3.08
2023-01-11T01:48:57.742Z,3.00
2023-01-11T01:51:31.004Z,3.03
2023-01-11T01:54:07.326Z,2.58
2023-01-11T01:56:48.850Z,2.70
2023-01-11T01:59:32.160Z,2.72
2023-01-11T02:01:59.821Z,3.45
2023-01-11T02:04:30.058Z,3.53
2023-01-11T02:07:20.342Z,3.05
2023-01-11T02:10:08.174Z,3.45
2023-01-11T02:12:39.280Z,3.83
2023-01-11T02:15:08.571Z,3.70
2023-01-11T02:17:37.713Z,3.70
2023-01-11T02:22:48.830Z,4.35
2023-01-11T02:25:34.544Z,4.28
2023-01-11T02:28:28.318Z,4.25
2023-01-11T02:31:17.255Z,4.32
2023-01-11T02:34:26.874Z,4.07
2023-01-11T02:37:12.947Z,4.40
2023-01-11T02:40:15.150Z,3.90
2023-01-11T02:43:12.911Z,3.80
2023-01-11T02:45:51.140Z,3.45
2023-01-11T02:48:29.087Z,4.25
2023-01-11T02:51:11.331Z,3.80
2023-01-11T02:53:48.612Z,3.67
2023-01-11T02:56:27.009Z,4.28
2023-01-11T02:58:55.848Z,3.35
2023-01-11T03:01:23.566Z,3.58
2023-01-11T03:03:51.197Z,3.38
2023-01-11T03:06:35.000Z,4.03
2023-01-11T03:09:05.085Z,3.58
2023-01-11T03:12:20.174Z,2.72
2023-01-11T03:14:59.501Z,3.22
2023-01-11T03:17:35.953Z,3.33
2023-01-11T03:20:28.962Z,2.85
2023-01-11T03:23:05.310Z,3.08
2023-01-11T03:25:50.708Z,3.50
2023-01-11T03:28:32.821Z,3.95
2023-01-11T03:31:08.149Z,3.42
2023-01-11T03:33:52.996Z,3.35
2023-01-11T03:36:21.906Z,3.55
2023-01-11T03:38:56.297Z,3.35
2023-01-11T03:41:26.781Z,2.95
2023-01-11T03:43:54.706Z,3.15
2023-01-11T03:46:28.848Z,3.50
2023-01-11T03:49:02.713Z,3.60
2023-01-11T03:51:52.353Z,3.53
2023-01-11T03:54:25.212Z,3.50
2023-01-11T03:57:04.804Z,2.70
2023-01-11T03:59:35.674Z,3.00
2023-01-11T04:02:03.020Z,3.20
2023-01-11T04:04:30.020Z,3.22
2023-01-11T04:06:57.224Z,2.95
2023-01-11T04:09:24.468Z,2.70
2023-01-11T04:11:53.925Z,3.90
2023-01-11T04:14:21.028Z,3.90
2023-01-11T04:16:47.985Z,3.38
2023-01-11T04:19:14.996Z,2.85
2023-01-11T04:21:42.063Z,3.92
2023-01-11T04:24:09.400Z,4.45
2023-01-11T04:26:36.534Z,4.78
2023-01-11T04:29:05.982Z,4.53
2023-01-11T04:31:33.505Z,4.72
2023-01-11T04:34:00.796Z,5.03
2023-01-11T04:36:32.350Z,4.35
2023-01-11T04:38:59.766Z,4.22
2023-01-11T04:41:47.768Z,3.92
2023-01-11T04:44:14.846Z,3.45
2023-01-11T04:46:45.861Z,3.30
2023-01-11T04:49:15.354Z,1.73
2023-01-11T04:51:42.418Z,1.88
2023-01-11T04:54:09.514Z,1.33
2023-01-11T04:56:36.551Z,1.20
2023-01-11T04:59:05.702Z,1.83
2023-01-11T05:01:32.764Z,1.48
2023-01-11T05:04:00.061Z,1.38
2023-01-11T05:06:27.239Z,1.23
2023-01-11T05:08:54.471Z,1.63
2023-01-11T05:11:21.625Z,1.60
2023-01-11T05:13:54.297Z,1.13
2023-01-11T05:16:32.222Z,1.67
2023-01-11T05:19:05.127Z,1.33
2023-01-11T05:21:39.578Z,1.48
2023-01-11T05:24:12.436Z,1.48
2023-01-11T05:26:44.080Z,1.83
2023-01-11T05:29:13.843Z,2.13
2023-01-11T05:31:41.284Z,2.10
2023-01-11T05:34:10.719Z,3.15
2023-01-11T05:36:37.893Z,2.55
2023-01-11T05:41:46.594Z,3.65
2023-01-11T05:44:32.579Z,3.67
2023-01-11T05:46:59.809Z,3.30
2023-01-11T05:49:28.898Z,2.88
2023-01-11T05:51:58.085Z,2.60
2023-01-11T05:54:26.142Z,1.88
2023-01-11T05:56:53.148Z,3.10
2023-01-11T05:59:20.393Z,2.95
2023-01-11T06:01:47.938Z,3.15
2023-01-11T06:04:16.934Z,3.28
2023-01-11T06:06:51.462Z,2.45
2023-01-11T06:09:18.681Z,2.53
2023-01-11T06:11:45.864Z,3.45
2023-01-11T06:14:12.886Z,3.42
2023-01-11T06:16:43.410Z,3.30
2023-01-11T06:19:17.070Z,3.47
2023-01-11T06:21:44.282Z,3.17
2023-01-11T06:24:11.375Z,4.32
2023-01-11T06:26:44.823Z,5.03
2023-01-11T06:29:12.137Z,8.75
2023-01-11T06:31:40.589Z,7.50
2023-01-11T06:34:07.792Z,7.63
2023-01-11T06:36:38.236Z,8.27
2023-01-11T06:39:07.868Z,7.57
2023-01-11T06:41:35.011Z,5.13
2023-01-11T06:44:03.407Z,5.50
2023-01-11T06:46:30.596Z,5.60
2023-01-11T06:48:57.960Z,4.32
2023-01-11T06:51:25.094Z,3.65
2023-01-11T06:53:52.288Z,4.30
2023-01-11T06:56:23.721Z,3.80
2023-01-11T06:58:52.433Z,3.30
2023-01-11T07:01:19.775Z,3.95
2023-01-11T07:03:48.464Z,2.75
2023-01-11T07:06:15.562Z,3.85
2023-01-11T07:08:42.921Z,3.50
2023-01-11T07:11:10.048Z,4.50
2023-01-11T07:13:37.032Z,3.67
2023-01-11T07:16:04.313Z,2.97
2023-01-11T07:18:31.944Z,4.32
2023-01-11T07:21:05.482Z,3.35
2023-01-11T07:23:32.568Z,3.92
2023-01-11T07:25:59.828Z,3.22
2023-01-11T07:28:28.611Z,2.92
2023-01-11T07:30:59.215Z,3.75
2023-01-11T07:33:31.687Z,3.40
2023-01-11T07:36:00.885Z,3.65
2023-01-11T07:38:30.731Z,3.30
2023-01-11T07:40:57.723Z,3.30
2023-01-11T07:43:24.662Z,2.58
2023-01-11T07:45:55.174Z,3.05
2023-01-11T07:48:26.918Z,2.83
2023-01-11T07:50:54.471Z,2.55
2023-01-11T07:53:22.199Z,1.77
2023-01-11T07:55:51.493Z,1.25
2023-01-11T07:58:18.575Z,2.35
2023-01-11T08:00:46.387Z,1.20
2023-01-11T08:03:13.725Z,1.60
2023-01-11T08:05:43.253Z,1.88
2023-01-11T08:08:10.392Z,1.05
2023-01-11T08:10:38.001Z,1.00
2023-01-11T08:13:35.169Z,1.40
2023-01-11T08:16:02.484Z,1.42
2023-01-11T08:18:29.589Z,0.75
2023-01-11T08:20:56.621Z,0.70
2023-01-11T08:23:23.907Z,1.10
2023-01-11T08:26:00.036Z,1.30
2023-01-11T08:28:28.531Z,0.80
2023-01-11T08:30:55.696Z,0.93
2023-01-11T08:33:26.694Z,1.08
2023-01-11T08:35:54.099Z,1.45
2023-01-11T08:38:37.238Z,1.55
2023-01-11T08:41:31.296Z,1.50
2023-01-11T08:44:05.624Z,1.00
2023-01-11T08:46:35.556Z,1.40
2023-01-11T08:49:12.442Z,1.00
2023-01-11T08:51:40.681Z,0.82
2023-01-11T08:54:17.954Z,1.17
2023-01-11T08:56:51.647Z,1.17
2023-01-11T08:59:22.132Z,1.30
2023-01-11T09:01:49.539Z,1.00
2023-01-11T09:04:24.780Z,1.05
2023-01-11T09:06:55.449Z,1.20
2023-01-11T09:09:22.976Z,0.75
2023-01-11T09:11:57.348Z,1.58
2023-01-11T09:14:28.272Z,1.20
2023-01-11T09:16:56.422Z,0.77
2023-01-11T09:19:23.897Z,1.05
2023-01-11T09:21:51.984Z,1.42
2023-01-11T09:24:19.385Z,1.55
2023-01-11T09:26:46.757Z,1.15
2023-01-11T09:29:14.401Z,1.80
2023-01-11T09:31:41.738Z,1.60
2023-01-11T09:34:11.298Z,1.90
2023-01-11T09:36:40.395Z,0.90
2023-01-11T09:39:10.739Z,1.80
2023-01-11T09:42:00.592Z,1.70
2023-01-11T09:44:29.945Z,1.20
2023-01-11T09:47:12.655Z,1.95
2023-01-11T09:49:45.194Z,1.90
2023-01-11T09:52:24.541Z,1.42
2023-01-11T09:54:51.908Z,1.67
2023-01-11T09:57:34.418Z,1.20
2023-01-11T10:00:09.966Z,1.52
2023-01-11T10:02:50.208Z,1.33
2023-01-11T10:05:36.806Z,1.00
2023-01-11T10:18:25.382Z,1.85
2023-01-11T10:18:26.625Z,2.00
2023-01-11T10:21:11.249Z,1.67
2023-01-11T10:23:55.441Z,0.77
2023-01-11T10:26:29.389Z,1.55
2023-01-11T10:29:19.814Z,0.52
2023-01-11T10:32:43.764Z,1.42
2023-01-11T10:35:52.081Z,1.40
2023-01-11T10:38:56.331Z,1.65
2023-01-11T10:42:00.200Z,1.08
2023-01-11T10:44:39.181Z,0.73
2023-01-11T10:47:16.650Z,0.85
2023-01-11T10:50:06.205Z,1.73
2023-01-11T10:52:48.147Z,1.50
2023-01-11T10:55:23.264Z,1.42
2023-01-11T10:58:19.891Z,1.52
2023-01-11T11:01:17.325Z,0.98
2023-01-11T11:04:20.573Z,0.70
2023-01-11T11:06:55.478Z,0.70
2023-01-11T11:09:42.605Z,0.90
2023-01-11T11:12:19.008Z,1.33
2023-01-11T11:14:52.701Z,1.30
2023-01-11T11:17:28.990Z,1.23
2023-01-11T11:19:59.060Z,1.45
2023-01-11T11:22:29.323Z,1.67
2023-01-11T11:25:02.090Z,1.50
2023-01-11T11:27:41.825Z,1.88
2023-01-11T11:30:14.377Z,0.77
2023-01-11T11:32:54.686Z,1.40
2023-01-11T11:35:38.344Z,1.10
2023-01-11T11:38:06.110Z,2.08
2023-01-11T11:40:35.134Z,1.40
2023-01-11T11:43:23.099Z,1.30
2023-01-11T11:45:54.506Z,2.00
2023-01-11T11:48:22.611Z,0.65
2023-01-11T11:50:50.143Z,1.02
2023-01-11T11:53:29.712Z,1.58
2023-01-11T11:58:26.741Z,1.38
2023-01-11T12:00:54.107Z,1.48
2023-01-11T12:03:22.301Z,1.10
2023-01-11T12:05:51.274Z,1.77
2023-01-11T12:08:24.798Z,1.88
2023-01-11T12:11:01.105Z,1.55
2023-01-11T12:13:33.621Z,2.00
2023-01-11T12:16:03.303Z,1.08
2023-01-11T12:18:41.554Z,2.13
2023-01-11T12:23:41.754Z,1.73
2023-01-11T12:26:15.403Z,1.33
2023-01-11T12:29:00.789Z,1.40
2023-01-11T12:31:42.938Z,1.45
2023-01-11T12:34:23.528Z,1.33
2023-01-11T12:37:23.410Z,1.35
2023-01-11T12:39:58.274Z,1.20
2023-01-11T12:42:48.189Z,1.88
2023-01-11T12:45:45.740Z,1.95
2023-01-11T12:48:36.018Z,1.67
2023-01-11T12:51:24.353Z,1.92
2023-01-11T12:54:04.319Z,1.35
2023-01-11T12:57:08.537Z,2.00
2023-01-11T12:59:41.478Z,1.77
2023-01-11T13:02:22.082Z,1.80
2023-01-11T13:05:06.819Z,1.90
2023-01-11T13:07:49.083Z,1.85
2023-01-11T13:10:40.353Z,1.58
2023-01-11T13:13:22.743Z,1.67
2023-01-11T13:15:53.664Z,1.23
2023-01-11T13:18:29.807Z,1.73
2023-01-11T13:21:18.723Z,2.03
2023-01-11T13:24:16.025Z,1.95
2023-01-11T13:26:45.729Z,2.58
2023-01-11T13:29:25.136Z,2.72
2023-01-11T13:31:54.515Z,2.55
2023-01-11T13:34:52.652Z,2.38
2023-01-11T13:37:44.679Z,2.72
2023-01-11T13:40:29.615Z,2.40
2023-01-11T13:43:00.181Z,2.75
2023-01-11T13:45:40.738Z,3.50
2023-01-11T13:48:25.868Z,3.58
2023-01-11T13:51:05.200Z,2.50
2023-01-11T13:53:37.224Z,2.85
2023-01-11T13:56:19.204Z,2.13
2023-01-11T13:58:56.450Z,2.40
2023-01-11T14:01:44.211Z,2.67
2023-01-11T14:04:23.432Z,1.88
2023-01-11T14:07:08.476Z,3.30
2023-01-11T14:10:00.810Z,2.20
2023-01-11T14:12:33.825Z,3.20
2023-01-11T14:15:03.744Z,2.88
2023-01-11T14:17:42.472Z,2.78
2023-01-11T14:20:20.962Z,3.22
2023-01-11T14:23:07.770Z,4.85
2023-01-11T14:25:52.920Z,3.95
2023-01-11T14:28:31.227Z,4.32
2023-01-11T14:31:04.087Z,4.25
2023-01-11T14:33:52.283Z,4.20
2023-01-11T14:36:44.308Z,3.72
2023-01-11T14:39:24.017Z,3.08
2023-01-11T14:42:31.047Z,1.90
2023-01-11T14:45:22.636Z,2.55
2023-01-11T14:48:13.931Z,2.95
2023-01-11T14:51:16.099Z,2.70
2023-01-11T14:53:47.965Z,3.05
2023-01-11T14:56:42.910Z,2.13
2023-01-11T14:59:31.715Z,2.08
2023-01-11T15:02:04.890Z,2.95
2023-01-11T15:04:38.672Z,2.60
2023-01-11T15:07:24.627Z,2.13
2023-01-11T15:09:54.250Z,2.63
2023-01-11T15:12:24.297Z,3.22
2023-01-11T15:15:12.917Z,2.10
2023-01-11T15:17:59.493Z,2.47
2023-01-11T15:20:26.892Z,2.80
2023-01-11T15:23:01.960Z,3.00
2023-01-11T15:25:33.783Z,3.28
2023-01-11T15:28:25.413Z,3.40
2023-01-11T15:30:52.780Z,3.72
2023-01-11T15:33:19.909Z,3.03
2023-01-11T15:35:56.141Z,3.30
2023-01-11T15:38:45.467Z,4.25
2023-01-11T15:41:36.573Z,2.88
2023-01-11T15:44:22.101Z,2.80
2023-01-11T15:47:15.195Z,3.80
2023-01-11T15:50:21.195Z,4.68
2023-01-11T15:53:23.549Z,3.60
2023-01-11T15:56:08.410Z,3.78
2023-01-11T15:58:57.176Z,4.25
2023-01-11T16:01:26.620Z,3.28
2023-01-11T16:04:05.683Z,4.10
2023-01-11T16:06:37.012Z,5.07
2023-01-11T16:09:15.310Z,4.78
2023-01-11T16:11:51.323Z,4.78
2023-01-11T16:14:42.682Z,4.07
2023-01-11T16:17:14.255Z,4.25
2023-01-11T16:19:44.177Z,5.07
2023-01-11T16:22:19.654Z,4.60
2023-01-11T16:24:49.638Z,5.00
2023-01-11T16:27:24.434Z,5.53
2023-01-11T16:29:52.074Z,5.10
2023-01-11T16:32:27.286Z,4.60
2023-01-11T16:34:55.299Z,4.93
2023-01-11T16:37:25.456Z,5.32
2023-01-11T16:39:55.461Z,5.13
2023-01-11T16:42:22.738Z,4.57
2023-01-11T16:45:14.967Z,6.25
2023-01-11T16:47:42.113Z,4.93
2023-01-11T16:50:20.307Z,4.15
2023-01-11T16:52:55.905Z,4.22
2023-01-11T16:55:27.365Z,4.75
2023-01-11T16:57:57.978Z,4.65
2023-01-11T17:00:34.524Z,5.80
2023-01-11T17:03:06.635Z,5.70
2023-01-11T17:05:40.663Z,4.60
2023-01-11T17:08:52.648Z,5.10
2023-01-11T17:11:31.258Z,4.60
2023-01-11T17:14:27.288Z,5.57
2023-01-11T17:17:00.530Z,5.35
2023-01-11T17:19:29.956Z,6.05
2023-01-11T17:22:09.032Z,7.15
2023-01-11T17:25:02.470Z,6.57
2023-01-11T17:27:38.419Z,5.90
2023-01-11T17:30:14.979Z,6.10
2023-01-11T17:32:44.706Z,6.30
2023-01-11T17:35:17.994Z,6.75
2023-01-11T17:37:45.811Z,6.43
2023-01-11T17:40:21.319Z,7.15
2023-01-11T17:43:10.151Z,7.10
2023-01-11T17:45:39.502Z,6.88
2023-01-11T17:48:14.625Z,8.18
2023-01-11T17:50:49.772Z,8.20
2023-01-11T17:53:21.548Z,7.28
2023-01-11T17:55:52.795Z,7.28
2023-01-11T17:58:22.013Z,7.15
2023-01-11T18:01:15.473Z,7.47
2023-01-11T18:03:57.169Z,6.95
2023-01-11T18:06:35.288Z,7.35
2023-01-11T18:09:16.409Z,7.65
2023-01-11T18:11:43.489Z,7.90
2023-01-11T18:14:28.277Z,9.27
2023-01-11T18:17:03.387Z,9.65
2023-01-11T18:19:39.065Z,10.00
2023-01-11T18:22:25.769Z,9.63
2023-01-11T18:24:53.940Z,7.88
2023-01-11T18:27:28.281Z,8.32
2023-01-11T18:29:56.915Z,8.30
2023-01-11T18:32:24.121Z,8.00
2023-01-11T18:34:53.551Z,7.88
2023-01-11T18:37:20.909Z,7.50
2023-01-11T18:39:48.743Z,7.55
2023-01-11T18:42:21.940Z,9.23
2023-01-11T18:44:49.668Z,8.20
2023-01-11T18:47:25.024Z,8.98
2023-01-11T18:52:23.646Z,7.72
2023-01-11T18:54:51.449Z,8.40
2023-01-11T18:57:19.001Z,9.45
2023-01-11T18:59:47.082Z,9.60
2023-01-11T19:04:46.426Z,9.27
2023-01-11T19:07:14.030Z,10.15
2023-01-11T19:09:41.434Z,9.80
2023-01-11T19:12:08.678Z,8.63
2023-01-11T19:14:36.044Z,9.48
2023-01-11T19:17:04.980Z,9.30
2023-01-11T19:19:32.188Z,8.10
2023-01-11T19:22:01.971Z,8.48
2023-01-11T19:24:29.330Z,8.88
2023-01-11T19:26:56.485Z,9.98
2023-01-11T19:29:26.223Z,9.52
2023-01-11T19:31:55.813Z,8.50
2023-01-11T19:34:23.501Z,8.40
2023-01-11T19:36:51.577Z,5.90
2023-01-11T19:39:18.733Z,7.88
2023-01-11T19:41:54.800Z,6.18
2023-01-11T19:44:24.286Z,6.18
2023-01-11T19:46:57.043Z,6.40
2023-01-11T19:49:36.895Z,6.45
2023-01-11T19:52:04.468Z,7.25
2023-01-11T19:54:31.575Z,6.03
2023-01-11T19:56:58.967Z,5.90
2023-01-11T19:59:26.074Z,6.20
2023-01-11T20:01:53.139Z,6.97
2023-01-11T20:04:21.236Z,6.07
2023-01-11T20:06:52.204Z,5.50
2023-01-11T20:09:19.761Z,5.78
2023-01-11T20:11:49.490Z,6.68
2023-01-11T20:14:16.967Z,5.30
2023-01-11T20:16:44.105Z,4.80
2023-01-11T20:19:11.182Z,5.45
2023-01-11T20:21:39.509Z,4.20
2023-01-11T20:24:06.749Z,4.80
2023-01-11T20:26:36.666Z,4.72
2023-01-11T20:29:05.804Z,4.68
2023-01-11T20:34:06.954Z,4.13
2023-01-11T20:36:33.871Z,3.42
2023-01-11T20:39:00.767Z,3.45
2023-01-11T20:41:46.771Z,3.50
2023-01-11T20:44:24.270Z,2.75
2023-01-11T20:46:52.419Z,2.92
2023-01-11T20:49:23.173Z,3.65
2023-01-11T20:51:50.523Z,3.40
2023-01-11T20:54:18.804Z,3.22
2023-01-11T20:56:48.681Z,4.15
2023-01-11T20:59:19.228Z,2.65
2023-01-11T21:01:50.469Z,2.50
2023-01-11T21:04:18.774Z,3.40
2023-01-11T21:06:48.457Z,2.90
2023-01-11T21:09:17.249Z,3.70
2023-01-11T21:11:44.491Z,3.17
2023-01-11T21:14:14.264Z,2.80
2023-01-11T21:16:42.109Z,2.40
2023-01-11T21:19:11.608Z,3.28
2023-01-11T21:21:38.742Z,2.63
2023-01-11T21:24:06.290Z,3.47
2023-01-11T21:26:35.044Z,3.50
2023-01-11T21:29:04.883Z,3.30
2023-01-11T21:31:36.664Z,3.58
2023-01-11T21:34:04.691Z,4.55
2023-01-11T21:36:34.941Z,4.40
2023-01-11T21:39:02.867Z,4.40
2023-01-11T21:41:50.613Z,4.25
2023-01-11T21:44:19.134Z,5.13
2023-01-11T21:46:46.750Z,4.75
2023-01-11T21:49:14.788Z,4.28
2023-01-11T21:51:42.413Z,3.25
2023-01-11T21:54:14.492Z,3.78
2023-01-11T21:56:44.174Z,3.33
2023-01-11T21:59:14.294Z,3.25
2023-01-11T22:01:43.997Z,4.40
2023-01-11T22:04:13.672Z,4.53
2023-01-11T22:06:43.112Z,4.00
2023-01-11T22:09:11.768Z,4.30
2023-01-11T22:11:39.259Z,5.05
2023-01-11T22:14:08.640Z,4.90
2023-01-11T22:16:37.096Z,4.63
2023-01-11T22:19:06.820Z,4.10
2023-01-11T22:21:34.229Z,5.05
2023-01-11T22:24:05.047Z,4.72
2023-01-11T22:26:33.747Z,4.15
2023-01-11T22:29:12.904Z,3.97
2023-01-11T22:32:01.046Z,5.00
2023-01-11T22:34:28.579Z,4.15
2023-01-11T22:36:55.664Z,4.63
2023-01-11T22:39:24.240Z,4.90
2023-01-11T22:41:51.641Z,4.88
2023-01-11T22:44:19.079Z,4.80
2023-01-11T22:46:48.887Z,4.80
2023-01-11T22:49:17.556Z,5.25
2023-01-11T22:51:44.742Z,5.55
2023-01-11T22:54:12.166Z,5.20
2023-01-11T22:56:39.521Z,5.38
2023-01-11T22:59:06.856Z,5.95
2023-01-11T23:01:36.055Z,5.63
2023-01-11T23:04:03.438Z,5.30
2023-01-11T23:06:38.693Z,6.03
2023-01-11T23:09:07.959Z,5.57
2023-01-11T23:11:58.153Z,5.15
2023-01-11T23:14:30.484Z,4.50
2023-01-11T23:17:00.777Z,5.35
2023-01-11T23:19:27.709Z,5.13
2023-01-11T23:21:54.931Z,5.18
2023-01-11T23:24:22.305Z,5.22
2023-01-11T23:26:49.238Z,5.35
2023-01-11T23:29:16.499Z,4.85
2023-01-11T23:31:43.684Z,4.97
2023-01-11T23:34:12.123Z,4.63
2023-01-11T23:36:41.672Z,5.07
2023-01-11T23:39:14.778Z,4.95
2023-01-11T23:42:00.671Z,4.72
2023-01-11T23:44:27.868Z,6.07
2023-01-11T23:47:13.243Z,4.90
2023-01-11T23:49:40.976Z,4.40
2023-01-11T23:52:07.833Z,4.75
2023-01-11T23:54:35.085Z,4.70
2023-01-11T23:57:02.839Z,5.07
2023-01-11T23:59:30.577Z,4.63
